• Join FlightAware (Why Join?)
  • Login
  • US Flag 
09:16AM EDT


 

Airport Tracker/Info


-or-


 

Live Flight TrackerFlight Track Log ✈ SKW5390 ✈ 09-May-2013 ✈ KGCC - KDEN

Flight Track Log - Related Links

Times and Time Zones

All times are in EDT time to prevent confusion due to time zone crossing. See the SKW5390 flight status page for this flight to view local times or setup timezone preferences in your user account.

Time Position Orientation Groundspeed Altitude Reporting Facility
EDT Latitude Longitude Course Direction KTS MPH feet Rate Location/Type
03:35PM 43.9098 -105.4489 180° South  Level Estimated
03:35PM 44.2219 -105.5528 183° South 242 278 10,000  Level Denver Center
03:36PM 43.8512 -105.5117 218° Southwest  Level FlightAware Approximate
03:36PM 44.1633 -105.5419 172° South 223 257 11,300  Level Denver Center
03:37PM 43.7782 -105.4954 180° South  Level Estimated
03:38PM 43.7110 -105.5384 205° Southwest  Level FlightAware Approximate
03:38PM 44.1025 -105.5461 183° South 223 257 12,600  Level Denver Center
03:39PM 43.6381 -105.5209 184° South  Level Estimated
03:39PM 44.0289 -105.5558 185° South 230 265 14,000  Level Denver Center
03:40PM 43.5678 -105.5527 198° South  Level FlightAware Approximate
03:40PM 43.9678 -105.5333 165° South 236 272 15,300  Level Denver Center
03:41PM 43.4950 -105.5344 183° South  Level Estimated
03:41PM 43.8961 -105.5006 162° South 239 275 16,600  Level Denver Center
03:42PM 43.8347 -105.4744 163° South 242 278 17,500 720 Climbing Denver Center
03:43PM 43.7622 -105.4414 162° South 244 281 18,200 720 Climbing Denver Center
03:44PM 43.6972 -105.4192 166° South 247 284 19,000 840 Climbing Denver Center
03:45PM 43.6233 -105.3956 167° South 245 282 20,000 780 Climbing Denver Center
03:46PM 43.5594 -105.3756 167° South 245 282 20,700 660 Climbing Denver Center
03:47PM 43.4933 -105.3531 166° South 250 288 21,400 720 Climbing Denver Center
03:48PM 43.4175 -105.3292 167° South 251 289 22,200 720 Climbing Denver Center
03:49PM 43.3522 -105.3175 173° South 248 285 22,900 660 Climbing Denver Center
03:50PM 43.2744 -105.3039 173° South 250 288 23,600 600 Climbing Denver Center
03:51PM 43.1853 -105.2808 169° South 254 292 24,300 540 Climbing Denver Center
03:52PM 43.1186 -105.2625 169° South 254 292 24,900 300 Climbing Denver Center
03:53PM 43.0408 -105.2425 169° South 255 293 25,000  Climbing Denver Center
03:54PM 42.9708 -105.2231 169° South 264 304 25,000  Level Denver Center
03:55PM 42.8997 -105.2039 169° South 270 311 25,000  Level Denver Center
03:56PM 42.8147 -105.1822 169° South 276 318 25,000  Level Denver Center
03:57PM 42.7539 -105.1672 170° South 277 319 25,000  Level Denver Center
03:58PM 42.6550 -105.1411 169° South 282 325 25,000  Level Denver Center
03:59PM 42.5686 -105.1186 169° South 284 327 25,000  Level Denver Center
04:00PM 42.4942 -105.1000 170° South 285 328 25,000  Level Denver Center
04:01PM 42.4197 -105.0808 169° South 285 328 25,000  Level Denver Center
04:02PM 42.3319 -105.0586 169° South 288 331 25,000  Level Denver Center
04:04PM 42.2572 -105.0392 169° South 287 330 25,000  Level Denver Center
04:05PM 42.1758 -104.9936 157° South 291 335 25,000  Level Denver Center
04:06PM 42.1119 -104.9400 148° Southeast 284 327 25,000  Level Denver Center
04:07PM 42.0364 -104.8758 148° Southeast 288 331 25,000  Level Denver Center
04:08PM 41.9731 -104.8222 148° Southeast 283 326 25,000  Level Denver Center
04:09PM 41.8983 -104.7575 147° Southeast 285 328 25,000  Level Denver Center
04:10PM 41.8350 -104.7042 148° Southeast 284 327 25,000 -180 Level Denver Center
04:11PM 41.7603 -104.6414 148° Southeast 283 326 24,700 -720 Descending Denver Center
04:12PM 41.6931 -104.5850 148° Southeast 289 333 23,600 -1,080 Descending Denver Center
04:13PM 41.5989 -104.5411 161° South 314 361 22,500 -1,020 Descending Denver Center
04:14PM 41.5178 -104.5081 163° South 317 365 21,500 -900 Descending Denver Center
04:15PM 41.4364 -104.4733 162° South 320 368 20,500 -1,020 Descending Denver Center
04:16PM 41.3283 -104.4247 161° South 320 368 19,200 -1,440 Descending Denver Center
04:17PM 41.2336 -104.3825 161° South 321 369 17,600 -1,500 Descending Denver Center
04:18PM 41.1622 -104.3489 160° South 300 345 15,900 -1,500 Descending Denver Center
04:19PM 41.0581 -104.3072 163° South 301 346 14,200 -1,380 Descending Denver Center
04:20PM 40.9769 -104.3064 180° South 304 350 13,100 -600 Descending Denver Center
04:21PM 40.9175 -104.3336 199° South 292 336 13,000 -60 Descending Denver Center
04:22PM 40.8319 -104.3619 194° South 262 302 13,000  Level Denver Center
04:24PM 40.7550 -104.3853 193° South 255 293 13,000  Level Denver Center
04:25PM 40.6969 -104.3839 179° South 260 299 13,000  Level Denver Center
04:26PM 40.6081 -104.3864 181° South 259 298 13,000  Level Denver Center
04:27PM 40.5350 -104.3856 180° South 261 300 13,000  Level Denver Center
04:28PM 40.4631 -104.3889 182° South 259 298 13,000  Level Denver Center
04:29PM 40.3833 -104.3900 181° South 265 305 13,000  Level Denver Center
04:30PM 40.2967 -104.3739 172° South 258 297 13,000  Level Denver Center
04:31PM 40.2283 -104.3436 161° South 259 298 13,000  Level Denver Center
04:32PM 40.1558 -104.3128 162° South 256 295 13,000  Level Denver Center
04:33PM 40.0875 -104.2856 163° South 255 293 13,000  Level Denver Center
04:34PM 40.0236 -104.3192 202° Southwest 268 308 13,000  Level Denver Center
04:35PM 39.9978 -104.3908 245° Southwest 266 306 13,000 -180 Level Denver Center
04:36PM 39.9522 -104.4858 238° Southwest 268 308 12,700 -660 Descending Denver Center
04:37PM 39.8833 -104.5000 189° South 264 304 11,700 -1,200 Descending Denver TRACON
04:37PM 39.8658 -104.5078 199° South 262 302 11,500 -540 Descending Denver Center
04:38PM 39.7933 -104.5111 182° South 259 298 11,000 -780 Descending Denver Center
04:39PM 39.7197 -104.5158 183° South 247 284 10,000 -960 Descending Denver Center
04:40PM 39.6539 -104.5106 176° South 239 275 9,100 -540 Descending Denver Center
04:41PM 39.5928 -104.5253 191° South 238 274 8,900 -540 Descending Denver Center
04:42PM 39.5936 -104.6028 271° West 227 261 8,100 -480 Descending Denver Center
04:43PM 39.6439 -104.6394 331° Northwest 210 242 8,000 -60 Descending Denver Center
04:45PM 39.7011 -104.6442 356° North 196 226 8,000  Level Denver Center